aviador You're here:

KAIA Decoded Metar

ALLIANCE in NE, USA
Report Time2017-11-23 19:53:00
UTC Time2017-11-23 20:22:35
Flight Rules vfr VFR
Wind260° at 13 kt
W.Decomp.*RWY 26: 12.8 kt HW 2.5 kt LCW
RWY 30: 8.2 kt HW 10.1 kt LCW
RWY 17: 2.5 kt HW 12.8 kt RCW
W.Rank260° ranks 7
Current wind is above 260° avg. (8.1)
Visibility9999 m
Phenomena:N/A
Clouds:N/A
Expected CloudBase > 7,200 ft AGL from Temp-Dew spread
CeilingNone
Temp22°C (ISA +15)
Dew Point04°C (31% RH)
AAT16.0°C
QNH1014 hPa
Density Alt5,712 ft
Elevation3,924 ft
Report Wrong Elevation
Raw Report
METAR KAIA 231953Z AUTO 26013KT 10SM CLR 22/04 A2993 RMK AO2 SLP119
T02170039=

Extra information for KAIA:More info

Metar Taf Metar & Taf Last 4 Metars F.Rules Stats Wind Profile Meteogram Temp Stats Airport Information Weather charts Add Link Nearby VenuesMetar ALERT Operation Metar Decoded Social comments

AIRNAV info for KAIA